createdAt,value
2018-10-11T00:00:54.890Z,18.67
2018-10-11T00:01:59.160Z,17.45
2018-10-11T00:03:04.061Z,19.15
2018-10-11T00:04:08.556Z,16.73
2018-10-11T00:05:12.805Z,20.08
2018-10-11T00:06:17.018Z,18.40
2018-10-11T00:07:21.255Z,19.35
2018-10-11T00:08:27.963Z,17.82
2018-10-11T00:09:32.192Z,17.60
2018-10-11T00:10:36.416Z,19.45
2018-10-11T00:11:40.914Z,16.95
2018-10-11T00:12:45.354Z,17.90
2018-10-11T00:13:50.028Z,16.90
2018-10-11T00:14:54.291Z,17.98
2018-10-11T00:15:58.604Z,17.40
2018-10-11T00:17:03.493Z,18.60
2018-10-11T00:18:08.328Z,18.32
2018-10-11T00:19:12.576Z,17.23
2018-10-11T00:20:17.127Z,16.85
2018-10-11T00:21:21.358Z,17.87
2018-10-11T00:22:25.824Z,18.30
2018-10-11T00:23:31.227Z,16.67
2018-10-11T00:24:35.522Z,16.75
2018-10-11T00:25:39.835Z,16.90
2018-10-11T00:26:45.073Z,17.57
2018-10-11T00:27:49.361Z,17.50
2018-10-11T00:28:53.665Z,17.42
2018-10-11T00:29:57.917Z,17.57
2018-10-11T00:31:02.161Z,18.10
2018-10-11T00:32:06.405Z,16.95
2018-10-11T00:33:10.791Z,16.35
2018-10-11T00:34:15.137Z,17.20
2018-10-11T00:35:19.706Z,18.02
2018-10-11T00:36:24.389Z,17.50
2018-10-11T00:37:28.712Z,18.30
2018-10-11T00:38:32.982Z,16.02
2018-10-11T00:39:38.632Z,15.95
2018-10-11T00:40:43.113Z,17.98
2018-10-11T00:41:47.714Z,19.98
2018-10-11T00:42:52.112Z,18.42
2018-10-11T00:43:56.351Z,17.92
2018-10-11T00:45:00.630Z,17.07
2018-10-11T00:46:04.956Z,18.35
2018-10-11T00:47:09.505Z,19.82
2018-10-11T00:48:13.796Z,18.32
2018-10-11T00:49:18.042Z,19.07
2018-10-11T00:50:22.352Z,19.75
2018-10-11T00:51:26.769Z,19.67
2018-10-11T00:52:30.996Z,19.02
2018-10-11T00:53:35.749Z,17.75
2018-10-11T00:54:40.185Z,18.02
2018-10-11T00:55:44.641Z,19.00
2018-10-11T00:56:48.975Z,18.20
2018-10-11T00:57:53.506Z,17.40
2018-10-11T00:58:57.715Z,18.27
2018-10-11T01:00:01.988Z,17.90
2018-10-11T01:01:06.522Z,16.25
2018-10-11T01:02:10.956Z,16.30
2018-10-11T01:03:15.210Z,17.17
2018-10-11T01:04:19.568Z,17.82
2018-10-11T01:05:23.847Z,18.05
2018-10-11T01:06:28.315Z,17.60
2018-10-11T01:07:32.589Z,17.77
2018-10-11T01:08:37.176Z,17.35
2018-10-11T01:09:43.756Z,17.98
2018-10-11T01:10:48.387Z,17.48
2018-10-11T01:11:52.614Z,27.93
2018-10-11T01:12:57.514Z,20.82
2018-10-11T01:14:01.784Z,21.25
2018-10-11T01:15:06.140Z,18.67
2018-10-11T01:16:10.751Z,20.10
2018-10-11T01:17:16.755Z,21.40
2018-10-11T01:18:24.093Z,16.95
2018-10-11T01:19:28.287Z,16.93
2018-10-11T01:20:32.575Z,17.32
2018-10-11T01:21:36.853Z,18.25
2018-10-11T01:22:41.098Z,18.12
2018-10-11T01:23:45.714Z,17.82
2018-10-11T01:24:49.920Z,17.07
2018-10-11T01:25:54.631Z,17.77
2018-10-11T01:26:59.895Z,16.77
2018-10-11T01:28:04.635Z,17.67
2018-10-11T01:29:10.564Z,19.82
2018-10-11T01:30:14.879Z,19.62
2018-10-11T01:31:22.391Z,21.12
2018-10-11T01:32:27.039Z,21.68
2018-10-11T01:33:31.784Z,19.40
2018-10-11T01:34:36.015Z,19.23
2018-10-11T01:35:40.268Z,17.62
2018-10-11T01:36:45.429Z,19.02
2018-10-11T01:37:49.697Z,22.20
2018-10-11T01:38:54.675Z,19.37
2018-10-11T01:39:59.476Z,18.20
2018-10-11T01:41:04.263Z,17.62
2018-10-11T01:42:08.532Z,16.75
2018-10-11T01:43:12.832Z,16.80
2018-10-11T01:44:17.192Z,15.68
2018-10-11T01:45:21.577Z,18.05
2018-10-11T01:46:26.270Z,16.73
2018-10-11T01:47:31.270Z,17.05
2018-10-11T01:48:36.358Z,15.98
2018-10-11T01:49:40.625Z,16.37
2018-10-11T01:50:44.965Z,16.45
2018-10-11T01:51:49.615Z,16.65
2018-10-11T01:52:54.308Z,17.17
2018-10-11T01:53:58.566Z,17.62
2018-10-11T01:55:03.273Z,16.85
2018-10-11T01:56:08.256Z,15.20
2018-10-11T01:57:12.644Z,17.25
2018-10-11T01:58:16.910Z,15.72
2018-10-11T01:59:21.160Z,16.32
2018-10-11T02:00:26.056Z,16.87
2018-10-11T02:01:30.296Z,17.20
2018-10-11T02:02:34.772Z,17.77
2018-10-11T02:03:39.084Z,16.25
2018-10-11T02:04:43.373Z,16.42
2018-10-11T02:05:47.844Z,16.87
2018-10-11T02:06:52.160Z,16.70
2018-10-11T02:07:57.834Z,17.77
2018-10-11T02:12:06.729Z,18.07
2018-10-11T02:13:11.040Z,17.25
2018-10-11T02:14:15.328Z,18.60
2018-10-11T02:15:20.338Z,17.67
2018-10-11T02:16:25.122Z,17.50
2018-10-11T02:17:30.801Z,17.00
2018-10-11T02:18:35.037Z,18.50
2018-10-11T02:19:39.304Z,18.00
2018-10-11T02:20:43.556Z,17.40
2018-10-11T02:21:48.041Z,17.98
2018-10-11T02:22:54.086Z,18.30
2018-10-11T02:24:03.037Z,17.50
2018-10-11T02:25:07.486Z,17.15
2018-10-11T02:26:12.556Z,16.42
2018-10-11T02:27:16.983Z,16.52
2018-10-11T02:28:21.266Z,18.45
2018-10-11T02:29:25.580Z,15.93
2018-10-11T02:30:29.820Z,16.62
2018-10-11T02:31:34.147Z,16.20
2018-10-11T02:32:41.731Z,19.48
2018-10-11T02:33:46.284Z,20.32
2018-10-11T02:34:51.515Z,18.92
2018-10-11T02:35:56.739Z,16.80
2018-10-11T02:37:00.943Z,18.12
2018-10-11T02:38:05.191Z,16.62
2018-10-11T02:39:10.540Z,17.42
2018-10-11T02:40:16.144Z,18.17
2018-10-11T02:41:21.250Z,17.67
2018-10-11T02:42:26.290Z,16.52
2018-10-11T02:43:30.597Z,17.77
2018-10-11T02:44:34.818Z,18.50
2018-10-11T02:45:39.105Z,17.67
2018-10-11T02:46:43.749Z,19.67
2018-10-11T02:47:48.023Z,18.23
2018-10-11T02:48:53.276Z,19.15
2018-10-11T02:49:57.592Z,17.30
2018-10-11T02:51:01.848Z,19.23
2018-10-11T02:52:06.552Z,17.77
2018-10-11T02:53:11.108Z,17.92
2018-10-11T02:54:15.427Z,18.20
2018-10-11T02:55:23.976Z,17.12
2018-10-11T02:56:28.468Z,20.20
2018-10-11T02:57:43.798Z,20.35
2018-10-11T02:58:58.876Z,19.60
2018-10-11T03:00:04.652Z,19.15
2018-10-11T03:01:09.619Z,18.82
2018-10-11T03:02:15.004Z,18.07
2018-10-11T03:03:36.121Z,18.07
2018-10-11T03:04:40.568Z,18.25
2018-10-11T03:05:46.039Z,19.23
2018-10-11T03:06:50.675Z,20.82
2018-10-11T03:07:55.083Z,19.82
2018-10-11T03:08:59.816Z,22.35
2018-10-11T03:10:04.377Z,22.42
2018-10-11T03:11:08.798Z,21.97
2018-10-11T03:14:10.956Z,23.25
2018-10-11T03:15:15.361Z,25.88
2018-10-11T03:16:19.626Z,24.70
2018-10-11T03:17:23.933Z,24.57
2018-10-11T03:18:28.202Z,23.60
2018-10-11T03:19:32.452Z,24.10
2018-10-11T03:20:37.021Z,24.87
2018-10-11T03:21:41.328Z,24.60
2018-10-11T03:22:45.658Z,23.95
2018-10-11T03:23:49.963Z,27.22
2018-10-11T03:24:54.315Z,25.62
2018-10-11T03:25:58.563Z,26.05
2018-10-11T03:27:02.829Z,22.70
2018-10-11T03:28:07.381Z,21.57
2018-10-11T03:29:12.153Z,20.15
2018-10-11T03:30:16.421Z,19.20
2018-10-11T03:31:20.712Z,18.70
2018-10-11T03:32:25.197Z,20.05
2018-10-11T03:33:29.579Z,20.55
2018-10-11T03:34:34.218Z,20.30
2018-10-11T03:35:38.517Z,21.60
2018-10-11T03:36:42.896Z,22.02
2018-10-11T03:37:47.393Z,21.52
2018-10-11T03:38:51.966Z,22.10
2018-10-11T03:39:56.332Z,20.60
2018-10-11T03:41:00.703Z,20.27
2018-10-11T03:42:05.391Z,21.80
2018-10-11T03:43:10.712Z,23.42
2018-10-11T03:44:15.496Z,22.67
2018-10-11T03:45:19.815Z,23.07
2018-10-11T03:46:25.085Z,25.23
2018-10-11T03:47:29.339Z,26.05
2018-10-11T03:48:33.851Z,24.00
2018-10-11T03:49:38.131Z,23.10
2018-10-11T03:50:42.340Z,21.57
2018-10-11T03:51:46.666Z,20.25
2018-10-11T03:52:50.932Z,20.57
2018-10-11T03:53:55.260Z,21.00
2018-10-11T03:54:59.552Z,20.10
2018-10-11T03:56:04.266Z,20.52
2018-10-11T03:57:08.972Z,21.35
2018-10-11T03:58:13.424Z,20.43
2018-10-11T03:59:17.785Z,20.82
2018-10-11T04:00:22.270Z,22.25
2018-10-11T04:01:26.743Z,19.20
2018-10-11T04:02:31.146Z,22.73
2018-10-11T04:03:35.825Z,21.70
2018-10-11T04:04:40.318Z,21.02
2018-10-11T04:05:44.626Z,19.45
2018-10-11T04:06:48.981Z,21.33
2018-10-11T04:07:53.529Z,20.55
2018-10-11T04:08:58.005Z,20.60
2018-10-11T04:10:03.011Z,21.07
2018-10-11T04:11:07.327Z,21.57
2018-10-11T04:12:11.849Z,21.33
2018-10-11T04:13:16.159Z,24.40
2018-10-11T04:14:20.776Z,20.82
2018-10-11T04:15:25.764Z,21.07
2018-10-11T04:16:30.038Z,21.25
2018-10-11T04:17:34.369Z,19.67
2018-10-11T04:18:38.720Z,20.60
2018-10-11T04:19:43.061Z,20.52
2018-10-11T04:20:47.482Z,20.02
2018-10-11T04:21:51.802Z,19.75
2018-10-11T04:22:56.060Z,20.37
2018-10-11T04:24:00.359Z,21.77
2018-10-11T04:25:05.029Z,19.92
2018-10-11T04:26:09.342Z,22.50
2018-10-11T04:27:13.645Z,18.65
2018-10-11T04:28:17.984Z,22.30
2018-10-11T04:29:23.229Z,20.12
2018-10-11T04:30:27.611Z,20.15
2018-10-11T04:31:33.286Z,20.60
2018-10-11T04:32:38.393Z,21.87
2018-10-11T04:33:42.651Z,21.77
2018-10-11T04:34:47.446Z,21.37
2018-10-11T04:35:51.832Z,23.85
2018-10-11T04:36:56.264Z,19.85
2018-10-11T04:38:01.420Z,20.80
2018-10-11T04:39:07.427Z,20.85
2018-10-11T04:40:11.850Z,18.37
2018-10-11T04:41:16.231Z,21.02
2018-10-11T04:42:21.509Z,20.15
2018-10-11T04:43:25.954Z,22.85
2018-10-11T04:44:34.725Z,26.57
2018-10-11T04:45:39.000Z,25.10
2018-10-11T04:46:44.721Z,22.30
2018-10-11T04:47:49.100Z,21.77
2018-10-11T04:48:53.421Z,23.02
2018-10-11T04:49:57.969Z,23.60
2018-10-11T04:51:05.467Z,24.27
2018-10-11T04:52:09.718Z,33.00
2018-10-11T04:53:15.100Z,23.52
2018-10-11T04:54:19.512Z,24.67
2018-10-11T04:55:23.773Z,21.15
2018-10-11T04:56:29.273Z,22.50
2018-10-11T04:57:34.304Z,27.85
2018-10-11T04:58:39.347Z,26.02
2018-10-11T04:59:43.781Z,22.48
2018-10-11T05:00:48.817Z,23.50
2018-10-11T05:01:54.037Z,21.62
2018-10-11T05:02:58.278Z,23.40
2018-10-11T05:04:02.660Z,24.18
2018-10-11T05:05:07.009Z,23.22
2018-10-11T05:06:11.465Z,22.82
2018-10-11T05:07:15.750Z,21.90
2018-10-11T05:08:20.157Z,26.40
2018-10-11T05:09:24.506Z,22.42
2018-10-11T05:10:28.918Z,28.95
2018-10-11T05:11:33.253Z,27.22
2018-10-11T05:12:37.684Z,22.75
2018-10-11T05:13:46.836Z,22.32
2018-10-11T05:14:51.725Z,23.00
2018-10-11T05:15:56.146Z,23.38
2018-10-11T05:17:00.530Z,23.47
2018-10-11T05:18:06.021Z,24.63
2018-10-11T05:19:10.752Z,24.25
2018-10-11T05:20:16.148Z,26.10
2018-10-11T05:21:20.559Z,22.52
2018-10-11T05:22:24.867Z,23.95
2018-10-11T05:23:29.189Z,24.15
2018-10-11T05:24:33.745Z,24.05
2018-10-11T05:25:38.173Z,24.67
2018-10-11T05:26:42.460Z,22.90
2018-10-11T05:27:46.850Z,23.95
2018-10-11T05:28:51.285Z,27.45
2018-10-11T05:29:55.628Z,22.87
2018-10-11T05:31:00.050Z,32.50
2018-10-11T05:32:05.080Z,25.05
2018-10-11T05:33:09.388Z,23.50
2018-10-11T05:34:13.634Z,22.70
2018-10-11T05:35:18.989Z,23.92
2018-10-11T05:36:23.269Z,22.35
2018-10-11T05:37:27.517Z,23.60
2018-10-11T05:38:31.807Z,23.77
2018-10-11T05:39:36.348Z,25.32
2018-10-11T05:40:41.106Z,23.65
2018-10-11T05:41:45.674Z,23.75
2018-10-11T05:42:50.102Z,25.20
2018-10-11T05:43:54.557Z,25.50
2018-10-11T05:45:04.705Z,24.82
2018-10-11T05:46:17.892Z,25.35
2018-10-11T05:47:22.305Z,26.77
2018-10-11T05:48:28.830Z,26.02
2018-10-11T05:49:34.264Z,26.55
2018-10-11T05:50:38.789Z,25.65
2018-10-11T05:51:43.700Z,25.50
2018-10-11T05:52:48.554Z,24.90
2018-10-11T05:53:55.258Z,27.20
2018-10-11T05:54:59.808Z,28.20
2018-10-11T05:56:04.679Z,28.90
2018-10-11T05:57:09.425Z,26.90
2018-10-11T05:58:14.710Z,25.92
2018-10-11T05:59:19.873Z,25.10
2018-10-11T06:00:24.280Z,26.00
2018-10-11T06:01:28.657Z,25.50
2018-10-11T06:02:32.956Z,25.95
2018-10-11T06:03:37.322Z,29.50
2018-10-11T06:04:41.931Z,26.25
2018-10-11T06:05:46.560Z,26.73
2018-10-11T06:06:51.082Z,25.85
2018-10-11T06:07:55.501Z,24.40
2018-10-11T06:09:00.453Z,26.23
2018-10-11T06:10:05.017Z,25.45
2018-10-11T06:11:09.494Z,27.15
2018-10-11T06:12:13.931Z,25.57
2018-10-11T06:13:18.510Z,25.48
2018-10-11T06:14:23.285Z,24.52
2018-10-11T06:15:27.919Z,25.05
2018-10-11T06:16:32.754Z,25.20
2018-10-11T06:17:37.587Z,28.20
2018-10-11T06:18:42.377Z,26.17
2018-10-11T06:19:46.751Z,25.45
2018-10-11T06:20:52.222Z,26.25
2018-10-11T06:21:56.836Z,25.02
2018-10-11T06:23:01.212Z,23.87
2018-10-11T06:24:05.658Z,26.45
2018-10-11T06:25:10.531Z,25.02
2018-10-11T06:26:15.477Z,24.80
2018-10-11T06:27:20.347Z,26.12
2018-10-11T06:28:24.825Z,25.77
2018-10-11T06:29:29.456Z,24.50
2018-10-11T06:30:35.064Z,24.20
2018-10-11T06:31:39.563Z,27.00
2018-10-11T06:32:44.536Z,22.90
2018-10-11T06:33:49.220Z,26.17
2018-10-11T06:34:55.289Z,27.70
2018-10-11T06:35:59.948Z,27.00
2018-10-11T06:37:04.810Z,25.27
2018-10-11T06:38:09.397Z,25.85
2018-10-11T06:39:14.209Z,23.80
2018-10-11T06:40:18.873Z,24.90
2018-10-11T06:41:23.443Z,25.70
2018-10-11T06:42:27.918Z,26.23
2018-10-11T06:43:32.567Z,26.35
2018-10-11T06:44:37.009Z,25.17
2018-10-11T06:45:41.494Z,27.20
2018-10-11T06:46:47.158Z,25.32
2018-10-11T06:47:56.161Z,27.20
2018-10-11T06:49:03.777Z,26.20
2018-10-11T06:50:09.383Z,24.07
2018-10-11T06:51:14.077Z,25.55
2018-10-11T06:52:18.553Z,26.27
2018-10-11T06:53:22.888Z,25.37
2018-10-11T06:54:28.904Z,26.80
2018-10-11T06:55:33.869Z,25.77
2018-10-11T06:56:38.898Z,25.35
2018-10-11T06:57:43.328Z,26.27
2018-10-11T06:58:48.818Z,24.70
2018-10-11T06:59:54.167Z,27.98
2018-10-11T07:00:59.279Z,26.40
2018-10-11T07:02:03.724Z,33.65
2018-10-11T07:03:08.197Z,27.55
2018-10-11T07:04:12.511Z,27.07
2018-10-11T07:05:16.941Z,26.42
2018-10-11T07:06:22.173Z,33.35
2018-10-11T07:07:26.742Z,27.13
2018-10-11T07:08:31.190Z,28.60
2018-10-11T07:09:35.570Z,25.05
2018-10-11T07:10:40.633Z,27.62
2018-10-11T07:11:44.917Z,32.67
2018-10-11T07:12:49.623Z,26.10
2018-10-11T07:13:53.976Z,26.30
2018-10-11T07:14:58.268Z,31.87
2018-10-11T07:16:03.735Z,30.80
2018-10-11T07:17:08.865Z,29.35
2018-10-11T07:18:13.145Z,31.30
2018-10-11T07:19:17.896Z,28.80
2018-10-11T07:20:22.713Z,28.80
2018-10-11T07:21:26.956Z,29.05
2018-10-11T07:22:31.301Z,27.73
2018-10-11T07:23:35.596Z,26.17
2018-10-11T07:24:40.100Z,25.90
2018-10-11T07:25:47.536Z,25.97
2018-10-11T07:26:52.861Z,26.40
2018-10-11T07:27:57.267Z,26.85
2018-10-11T07:29:02.672Z,29.25
2018-10-11T07:30:07.818Z,27.37
2018-10-11T07:31:12.079Z,27.42
2018-10-11T07:32:16.369Z,28.15
2018-10-11T07:33:20.643Z,28.95
2018-10-11T07:34:24.923Z,29.40
2018-10-11T07:35:29.784Z,29.87
2018-10-11T07:36:33.946Z,28.10
2018-10-11T07:37:38.212Z,30.30
2018-10-11T07:38:42.431Z,30.15
2018-10-11T07:39:47.546Z,27.82
2018-10-11T07:40:54.001Z,28.02
2018-10-11T07:42:00.188Z,29.55
2018-10-11T07:43:04.456Z,31.00
2018-10-11T07:44:09.458Z,29.77
2018-10-11T07:45:15.365Z,27.22
2018-10-11T07:46:19.738Z,31.10
2018-10-11T07:47:27.295Z,30.10
2018-10-11T07:48:32.020Z,28.25
2018-10-11T07:49:37.324Z,26.85
2018-10-11T07:50:41.669Z,28.50
2018-10-11T07:51:48.805Z,26.97
2018-10-11T07:52:53.141Z,27.25
2018-10-11T07:54:01.679Z,27.82
2018-10-11T07:55:06.145Z,26.75
2018-10-11T07:58:17.128Z,26.97
2018-10-11T07:59:21.464Z,29.32
2018-10-11T08:00:26.738Z,30.72
2018-10-11T08:01:31.542Z,28.75
2018-10-11T08:08:06.325Z,29.20
2018-10-11T08:09:10.884Z,29.00
2018-10-11T08:10:17.451Z,26.95
2018-10-11T08:11:21.917Z,28.45
2018-10-11T08:12:27.284Z,29.80
2018-10-11T08:13:33.267Z,25.40
2018-10-11T08:14:37.537Z,28.45
2018-10-11T08:15:41.846Z,28.45
2018-10-11T08:16:46.482Z,27.58
2018-10-11T08:17:51.977Z,26.15
2018-10-11T08:18:56.122Z,26.80
2018-10-11T08:20:04.647Z,26.60
2018-10-11T08:21:08.937Z,31.65
2018-10-11T08:22:14.648Z,30.60
2018-10-11T08:23:30.000Z,29.45
2018-10-11T08:24:34.776Z,27.58
2018-10-11T08:25:39.166Z,27.10
2018-10-11T08:26:43.345Z,26.25
2018-10-11T08:27:47.695Z,26.35
2018-10-11T08:28:55.938Z,26.37
2018-10-11T08:30:00.888Z,27.70
2018-10-11T08:31:05.523Z,27.73
2018-10-11T08:32:09.837Z,25.45
2018-10-11T08:33:14.380Z,25.50
2018-10-11T08:34:18.652Z,27.67
2018-10-11T08:35:23.332Z,26.40
2018-10-11T08:36:27.862Z,27.90
2018-10-11T08:37:32.322Z,28.02
2018-10-11T08:38:36.656Z,26.37
2018-10-11T08:39:42.185Z,25.37
2018-10-11T08:40:46.725Z,25.72
2018-10-11T08:41:51.515Z,26.57
2018-10-11T08:42:56.764Z,27.77
2018-10-11T08:44:02.228Z,27.80
2018-10-11T08:45:06.763Z,26.65
2018-10-11T08:46:11.252Z,26.85
2018-10-11T08:47:15.488Z,26.37
2018-10-11T08:48:20.085Z,26.23
2018-10-11T08:49:24.558Z,29.57
2018-10-11T08:50:29.965Z,24.18
2018-10-11T08:51:37.385Z,26.20
2018-10-11T08:52:41.673Z,27.73
2018-10-11T08:53:46.942Z,25.65
2018-10-11T08:54:52.578Z,26.30
2018-10-11T08:55:56.944Z,28.10
2018-10-11T08:57:01.931Z,27.00
2018-10-11T08:58:06.440Z,25.43
2018-10-11T08:59:11.929Z,22.40
2018-10-11T09:00:19.157Z,26.35
2018-10-11T09:01:23.417Z,25.68
2018-10-11T09:02:28.825Z,24.30
2018-10-11T09:03:33.397Z,24.80
2018-10-11T09:04:37.605Z,23.35
2018-10-11T09:05:42.738Z,26.02
2018-10-11T09:06:48.984Z,25.95
2018-10-11T09:07:54.141Z,25.70
2018-10-11T09:09:02.018Z,23.00
2018-10-11T09:10:06.653Z,25.43
2018-10-11T09:11:11.230Z,24.43
2018-10-11T09:12:15.707Z,24.32
2018-10-11T09:13:20.039Z,24.77
2018-10-11T09:14:24.666Z,24.70
2018-10-11T09:15:28.997Z,24.32
2018-10-11T09:16:33.805Z,28.95
2018-10-11T09:17:39.294Z,25.65
2018-10-11T09:18:45.574Z,23.60
2018-10-11T09:19:49.842Z,23.27
2018-10-11T09:20:54.453Z,24.25
2018-10-11T09:21:58.909Z,22.98
2018-10-11T09:23:03.859Z,25.25
2018-10-11T09:24:08.339Z,24.52
2018-10-11T09:25:13.960Z,23.80
2018-10-11T09:26:19.752Z,44.13
2018-10-11T09:27:24.898Z,30.08
2018-10-11T09:28:30.614Z,25.05
2018-10-11T09:29:35.172Z,27.67
2018-10-11T09:30:39.425Z,21.97
2018-10-11T09:31:43.704Z,22.67
2018-10-11T09:32:48.889Z,25.52
2018-10-11T09:33:53.244Z,24.67
2018-10-11T09:34:57.838Z,21.65
2018-10-11T09:36:02.883Z,22.32
2018-10-11T09:37:07.275Z,23.55
2018-10-11T09:38:11.679Z,28.17
2018-10-11T09:39:16.013Z,23.90
2018-10-11T09:40:21.449Z,25.32
2018-10-11T09:41:25.704Z,23.32
2018-10-11T09:42:30.113Z,26.02
2018-10-11T09:43:35.496Z,22.87
2018-10-11T09:44:41.281Z,26.15
2018-10-11T09:45:45.813Z,23.07
2018-10-11T09:46:50.137Z,25.12
2018-10-11T09:47:54.595Z,23.07
2018-10-11T09:49:02.167Z,25.10
2018-10-11T09:50:06.815Z,23.20
2018-10-11T09:51:11.950Z,23.12
2018-10-11T09:52:16.604Z,22.07
2018-10-11T09:53:21.891Z,24.35
2018-10-11T09:54:26.584Z,21.93
2018-10-11T09:55:34.804Z,22.07
2018-10-11T09:57:42.285Z,21.45
2018-10-11T09:58:47.830Z,19.20
2018-10-11T10:00:07.106Z,20.95
2018-10-11T10:01:17.380Z,22.17
2018-10-11T10:02:22.814Z,22.95
2018-10-11T10:03:27.520Z,21.50
2018-10-11T10:04:35.130Z,21.93
2018-10-11T10:05:39.590Z,21.40
2018-10-11T10:06:44.830Z,22.87
2018-10-11T10:07:49.265Z,22.93
2018-10-11T10:08:53.529Z,22.32
2018-10-11T10:09:59.373Z,22.00
2018-10-11T10:11:04.324Z,21.82
2018-10-11T10:12:10.550Z,20.17
2018-10-11T10:13:16.888Z,18.50
2018-10-11T10:14:21.676Z,23.22
2018-10-11T10:15:26.381Z,21.75
2018-10-11T10:16:31.081Z,24.27
2018-10-11T10:17:35.796Z,24.50
2018-10-11T10:18:40.340Z,21.45
2018-10-11T10:19:45.357Z,22.32
2018-10-11T10:20:49.669Z,21.68
2018-10-11T10:21:54.844Z,22.60
2018-10-11T10:22:59.273Z,21.65
2018-10-11T10:24:03.853Z,19.90
2018-10-11T10:25:08.206Z,19.73
2018-10-11T10:26:13.154Z,21.95
2018-10-11T10:27:17.514Z,22.73
2018-10-11T10:28:21.975Z,19.20
2018-10-11T10:29:26.333Z,21.70
2018-10-11T10:30:35.857Z,22.40
2018-10-11T10:31:40.182Z,21.68
2018-10-11T10:32:46.836Z,23.30
2018-10-11T10:33:51.668Z,21.85
2018-10-11T10:34:58.512Z,23.57
2018-10-11T10:36:03.922Z,20.23
2018-10-11T10:37:08.928Z,22.17
2018-10-11T10:38:13.460Z,22.42
2018-10-11T10:39:18.217Z,20.45
2018-10-11T10:40:23.485Z,20.48
2018-10-11T10:41:29.260Z,20.88
2018-10-11T10:42:33.829Z,21.30
2018-10-11T10:43:38.294Z,19.12
2018-10-11T10:44:45.142Z,19.20
2018-10-11T10:45:50.256Z,17.98
2018-10-11T10:46:54.653Z,21.55
2018-10-11T10:47:59.295Z,19.27
2018-10-11T10:49:03.754Z,21.23
2018-10-11T10:50:08.308Z,19.92
2018-10-11T10:51:13.143Z,21.10
2018-10-11T10:52:17.778Z,18.77
2018-10-11T10:53:24.077Z,19.00
2018-10-11T10:54:30.849Z,21.87
2018-10-11T10:55:35.677Z,17.40
2018-10-11T10:56:40.703Z,17.75
2018-10-11T10:57:45.282Z,19.95
2018-10-11T10:58:50.792Z,22.15
2018-10-11T10:59:55.293Z,21.15
2018-10-11T11:00:59.901Z,17.42
2018-10-11T11:02:04.167Z,18.30
2018-10-11T11:03:08.842Z,19.82
2018-10-11T11:04:13.461Z,19.67
2018-10-11T11:05:17.879Z,20.50
2018-10-11T11:06:22.452Z,20.10
2018-10-11T11:07:27.581Z,18.87
2018-10-11T11:08:31.887Z,17.67
2018-10-11T11:09:36.683Z,18.30
2018-10-11T11:10:41.969Z,18.70
2018-10-11T11:11:49.392Z,20.10
2018-10-11T11:12:54.257Z,21.48
2018-10-11T11:13:59.284Z,24.52
2018-10-11T11:15:05.336Z,21.07
2018-10-11T11:16:10.307Z,20.52
2018-10-11T11:17:15.606Z,23.85
2018-10-11T11:18:20.481Z,22.77
2018-10-11T11:19:24.915Z,23.90
2018-10-11T11:20:29.253Z,20.97
2018-10-11T11:21:34.363Z,21.60
2018-10-11T11:22:38.951Z,21.05
2018-10-11T11:23:44.039Z,24.47
2018-10-11T11:24:51.981Z,21.70
2018-10-11T11:25:56.980Z,22.17
2018-10-11T11:27:01.443Z,19.80
2018-10-11T11:28:06.550Z,23.18
2018-10-11T11:29:11.773Z,23.25
2018-10-11T11:30:16.697Z,18.55
2018-10-11T11:31:21.264Z,19.52
2018-10-11T11:32:26.233Z,17.70
2018-10-11T11:33:32.373Z,19.32
2018-10-11T11:34:36.814Z,18.20
2018-10-11T11:35:41.492Z,17.65
2018-10-11T11:36:46.649Z,21.07
2018-10-11T11:37:52.407Z,17.65
2018-10-11T11:38:57.008Z,19.37
2018-10-11T11:40:01.320Z,17.25
2018-10-11T11:41:05.752Z,18.95
2018-10-11T11:42:11.977Z,16.67
2018-10-11T11:43:16.922Z,18.75
2018-10-11T11:44:21.722Z,19.23
2018-10-11T11:45:26.392Z,19.90
2018-10-11T11:46:45.621Z,17.48
2018-10-11T11:47:50.443Z,18.37
2018-10-11T11:48:55.183Z,18.87
2018-10-11T11:49:59.535Z,17.85
2018-10-11T11:51:04.042Z,19.73
2018-10-11T11:52:08.762Z,16.90
2018-10-11T11:53:15.407Z,16.60
2018-10-11T11:54:21.933Z,16.35
2018-10-11T11:55:26.972Z,14.63
2018-10-11T11:56:31.370Z,12.82
2018-10-11T11:57:36.296Z,15.95
2018-10-11T11:58:41.096Z,14.13
2018-10-11T11:59:45.468Z,12.35
2018-10-11T12:00:51.118Z,15.18
2018-10-11T12:01:55.653Z,11.78
2018-10-11T12:03:01.645Z,14.35
2018-10-11T12:04:06.349Z,16.90
2018-10-11T12:05:10.753Z,16.70
2018-10-11T12:06:16.845Z,16.40
2018-10-11T12:07:22.057Z,16.65
2018-10-11T12:08:32.343Z,18.70
2018-10-11T12:09:38.871Z,15.85
2018-10-11T12:10:43.909Z,12.68
2018-10-11T12:11:48.320Z,14.03
2018-10-11T12:12:55.745Z,15.85
2018-10-11T12:14:00.377Z,14.55
2018-10-11T12:15:05.906Z,13.20
2018-10-11T12:16:10.337Z,17.65
2018-10-11T12:17:15.013Z,11.48
2018-10-11T12:18:19.473Z,12.80
2018-10-11T12:19:23.761Z,13.75
2018-10-11T12:20:30.145Z,12.93
2018-10-11T12:21:34.565Z,12.95
2018-10-11T12:22:42.292Z,15.13
2018-10-11T12:23:49.842Z,12.85
2018-10-11T12:24:56.319Z,14.03
2018-10-11T12:26:00.635Z,14.30
2018-10-11T12:27:05.296Z,13.13
2018-10-11T12:28:09.960Z,13.75
2018-10-11T12:29:14.385Z,14.35
2018-10-11T12:30:20.297Z,13.40
2018-10-11T12:31:25.824Z,13.10
2018-10-11T12:32:30.330Z,14.85
2018-10-11T12:33:35.730Z,14.80
2018-10-11T12:34:40.233Z,13.93
2018-10-11T12:35:44.791Z,16.50
2018-10-11T12:36:49.338Z,15.78
2018-10-11T12:37:56.534Z,15.25
2018-10-11T12:39:01.141Z,16.42
2018-10-11T12:40:05.704Z,16.65
2018-10-11T12:41:10.175Z,18.45
2018-10-11T12:42:15.645Z,14.83
2018-10-11T12:43:21.554Z,14.45
2018-10-11T12:44:26.532Z,17.12
2018-10-11T12:45:31.791Z,15.15
2018-10-11T12:46:38.164Z,18.00
2018-10-11T12:47:41.175Z,16.55
2018-10-11T12:48:45.673Z,12.93
2018-10-11T12:49:50.931Z,14.20
2018-10-11T12:50:55.310Z,15.32
2018-10-11T12:52:00.689Z,13.85
2018-10-11T12:53:05.056Z,15.53
2018-10-11T12:54:09.477Z,15.15
2018-10-11T12:55:15.857Z,12.93
2018-10-11T12:56:21.365Z,15.93
2018-10-11T12:57:25.711Z,18.12
2018-10-11T12:58:30.500Z,16.75
2018-10-11T12:59:34.805Z,15.80
2018-10-11T13:00:41.635Z,13.98
2018-10-11T13:01:47.319Z,16.23
2018-10-11T13:02:54.794Z,19.37
2018-10-11T13:03:59.802Z,15.40
2018-10-11T13:05:04.541Z,16.20
2018-10-11T13:06:09.929Z,17.95
2018-10-11T13:07:14.283Z,17.75
2018-10-11T13:08:18.641Z,16.62
2018-10-11T13:09:23.941Z,20.65
2018-10-11T13:10:32.757Z,17.27
2018-10-11T13:11:38.353Z,17.90
2018-10-11T13:12:42.973Z,21.07
2018-10-11T13:13:52.019Z,16.65
2018-10-11T13:14:53.474Z,15.60
2018-10-11T13:16:00.495Z,16.35
2018-10-11T13:17:03.649Z,18.92
2018-10-11T13:18:09.845Z,18.77
2018-10-11T13:19:14.260Z,16.10
2018-10-11T13:20:18.828Z,17.57
2018-10-11T13:21:25.680Z,17.00
2018-10-11T13:22:30.246Z,19.75
2018-10-11T13:23:35.878Z,16.45
2018-10-11T13:24:45.997Z,17.48
2018-10-11T13:25:46.166Z,19.00
2018-10-11T13:26:51.314Z,17.82
2018-10-11T13:27:56.903Z,20.15
2018-10-11T13:29:01.360Z,17.62
2018-10-11T13:30:06.262Z,18.02
2018-10-11T13:31:13.894Z,18.75
2018-10-11T13:32:20.670Z,20.30
2018-10-11T13:33:24.999Z,17.52
2018-10-11T13:34:30.599Z,20.72
2018-10-11T13:35:36.446Z,18.20
2018-10-11T13:36:41.808Z,18.70
2018-10-11T13:37:47.685Z,16.05
2018-10-11T13:38:51.944Z,17.20
2018-10-11T13:39:58.020Z,18.73
2018-10-11T13:41:03.702Z,17.17
2018-10-11T13:42:05.765Z,20.80
2018-10-11T13:43:13.009Z,17.60
2018-10-11T13:44:18.170Z,22.10
2018-10-11T13:45:22.870Z,19.25
2018-10-11T13:46:32.482Z,20.82
2018-10-11T13:47:41.217Z,18.25
2018-10-11T13:48:42.839Z,19.02
2018-10-11T13:49:49.512Z,28.92
2018-10-11T13:50:55.776Z,22.50
2018-10-11T13:52:00.283Z,17.07
2018-10-11T13:53:04.684Z,25.70
2018-10-11T13:54:10.477Z,25.15
2018-10-11T13:55:15.713Z,25.45
2018-10-11T13:56:21.116Z,20.08
2018-10-11T13:57:31.123Z,21.60
2018-10-11T13:58:32.959Z,19.80
2018-10-11T13:59:38.778Z,22.85
2018-10-11T14:00:43.678Z,19.35
2018-10-11T14:01:48.366Z,22.32
2018-10-11T14:02:53.746Z,19.95
2018-10-11T14:03:59.857Z,18.17
2018-10-11T14:05:04.420Z,19.35
2018-10-11T14:06:08.762Z,20.90
2018-10-11T14:07:14.027Z,18.52
2018-10-11T14:08:18.553Z,18.30
2018-10-11T14:09:22.883Z,19.05
2018-10-11T14:10:27.736Z,24.10
2018-10-11T14:11:32.351Z,20.88